createdAt,value
2017-11-09T00:02:16.152Z,9.80
2017-11-09T00:04:49.358Z,9.80
2017-11-09T00:07:17.006Z,9.80
2017-11-09T00:09:44.529Z,9.80
2017-11-09T00:12:12.088Z,9.80
2017-11-09T00:14:39.738Z,9.80
2017-11-09T00:17:07.252Z,9.70
2017-11-09T00:19:34.849Z,9.80
2017-11-09T00:22:02.529Z,9.80
2017-11-09T00:24:30.051Z,9.80
2017-11-09T00:26:57.553Z,9.90
2017-11-09T00:29:25.186Z,9.90
2017-11-09T00:31:53.531Z,9.90
2017-11-09T00:34:21.120Z,9.90
2017-11-09T00:36:48.770Z,9.90
2017-11-09T00:39:16.376Z,9.90
2017-11-09T00:41:44.022Z,9.80
2017-11-09T00:44:11.568Z,9.80
2017-11-09T00:46:39.256Z,9.80
2017-11-09T00:49:06.860Z,9.80
2017-11-09T00:51:34.469Z,9.80
2017-11-09T00:54:02.140Z,9.80
2017-11-09T00:56:29.745Z,9.80
2017-11-09T00:58:57.386Z,9.80
2017-11-09T01:01:25.123Z,9.80
2017-11-09T01:03:52.734Z,9.80
2017-11-09T01:06:20.289Z,9.80
2017-11-09T01:08:47.857Z,9.80
2017-11-09T01:11:15.458Z,9.80
2017-11-09T01:13:43.064Z,9.80
2017-11-09T01:16:11.545Z,9.90
2017-11-09T01:18:39.165Z,9.90
2017-11-09T01:21:06.746Z,9.90
2017-11-09T01:23:34.259Z,9.80
2017-11-09T01:26:01.776Z,9.80
2017-11-09T01:28:29.372Z,9.90
2017-11-09T01:30:56.988Z,9.80
2017-11-09T01:33:24.599Z,9.80
2017-11-09T01:35:52.282Z,9.80
2017-11-09T01:38:19.845Z,9.90
2017-11-09T01:40:47.547Z,9.80
2017-11-09T01:43:15.537Z,9.80
2017-11-09T01:45:43.193Z,9.80
2017-11-09T01:48:10.829Z,9.80
2017-11-09T01:50:38.489Z,9.80
2017-11-09T01:53:06.128Z,9.80
2017-11-09T01:55:33.768Z,9.80
2017-11-09T01:58:01.308Z,9.80
2017-11-09T02:00:28.998Z,9.80
2017-11-09T02:02:56.525Z,9.80
2017-11-09T02:05:24.133Z,9.80
2017-11-09T02:07:51.705Z,9.80
2017-11-09T02:10:19.268Z,9.70
2017-11-09T02:12:46.901Z,9.80
2017-11-09T02:15:14.539Z,9.80
2017-11-09T02:17:42.128Z,9.80
2017-11-09T02:20:09.671Z,9.70
2017-11-09T02:22:37.240Z,9.80
2017-11-09T02:25:04.858Z,9.70
2017-11-09T02:27:33.220Z,9.70
2017-11-09T02:30:00.844Z,9.70
2017-11-09T02:32:28.385Z,9.70
2017-11-09T02:34:55.968Z,9.70
2017-11-09T02:37:23.487Z,9.70
2017-11-09T02:39:51.795Z,9.80
2017-11-09T02:42:19.302Z,9.80
2017-11-09T02:44:46.806Z,9.80
2017-11-09T02:47:14.376Z,9.70
2017-11-09T02:49:41.910Z,9.70
2017-11-09T02:52:09.855Z,9.70
2017-11-09T02:54:38.311Z,9.80
2017-11-09T02:57:05.817Z,9.70
2017-11-09T02:59:33.389Z,9.70
2017-11-09T03:02:00.918Z,9.70
2017-11-09T03:04:29.239Z,9.60
2017-11-09T03:06:56.837Z,9.60
2017-11-09T03:09:24.364Z,9.60
2017-11-09T03:11:51.886Z,9.60
2017-11-09T03:14:19.522Z,9.60
2017-11-09T03:16:47.970Z,9.60
2017-11-09T03:19:15.567Z,9.60
2017-11-09T03:21:43.136Z,9.50
2017-11-09T03:24:10.665Z,9.50
2017-11-09T03:26:39.026Z,9.40
2017-11-09T03:29:06.678Z,9.40
2017-11-09T03:31:34.224Z,9.40
2017-11-09T03:34:01.763Z,9.40
2017-11-09T03:36:29.254Z,9.40
2017-11-09T03:38:56.771Z,9.40
2017-11-09T03:41:25.029Z,9.40
2017-11-09T03:43:52.528Z,9.30
2017-11-09T03:46:20.105Z,9.40
2017-11-09T03:48:47.703Z,9.40
2017-11-09T03:51:15.235Z,9.50
2017-11-09T03:53:42.852Z,9.40
2017-11-09T03:56:10.401Z,9.50
2017-11-09T03:58:37.962Z,9.50
2017-11-09T04:01:05.509Z,9.50
2017-11-09T04:03:33.193Z,9.60
2017-11-09T04:06:00.728Z,9.60
2017-11-09T04:08:28.208Z,9.60
2017-11-09T04:10:56.059Z,9.60
2017-11-09T04:13:23.650Z,9.60
2017-11-09T04:15:51.186Z,9.60
2017-11-09T04:18:19.636Z,9.60
2017-11-09T04:20:47.175Z,9.60
2017-11-09T04:23:15.691Z,9.60
2017-11-09T04:25:43.341Z,9.60
2017-11-09T04:28:11.766Z,9.60
2017-11-09T04:30:39.460Z,9.60
2017-11-09T04:33:07.373Z,9.60
2017-11-09T04:35:35.089Z,9.60
2017-11-09T04:38:02.635Z,9.60
2017-11-09T04:40:30.203Z,9.60
2017-11-09T04:42:57.759Z,9.60
2017-11-09T04:45:25.389Z,9.60
2017-11-09T04:47:53.021Z,9.70
2017-11-09T04:50:20.797Z,9.70
2017-11-09T04:52:48.558Z,9.70
2017-11-09T04:55:16.209Z,9.70
2017-11-09T04:57:45.480Z,9.70
2017-11-09T05:00:13.857Z,9.70
2017-11-09T05:02:41.523Z,9.70
2017-11-09T05:05:09.142Z,9.70
2017-11-09T05:07:36.939Z,9.60
2017-11-09T05:10:05.396Z,9.60
2017-11-09T05:12:33.116Z,9.70
2017-11-09T05:15:00.963Z,9.60
2017-11-09T05:17:32.464Z,9.60
2017-11-09T05:20:00.179Z,9.50
2017-11-09T05:22:27.946Z,9.50
2017-11-09T05:24:56.568Z,9.50
2017-11-09T05:27:24.278Z,9.50
2017-11-09T05:29:51.995Z,9.40
2017-11-09T05:32:19.747Z,9.40
2017-11-09T05:34:47.381Z,9.40
2017-11-09T05:39:54.570Z,9.40
2017-11-09T05:42:22.953Z,9.50
2017-11-09T05:44:51.384Z,9.50
2017-11-09T05:47:20.021Z,9.50
2017-11-09T05:49:47.678Z,9.50
2017-11-09T05:52:16.096Z,9.50
2017-11-09T05:54:43.755Z,9.50
2017-11-09T05:57:12.436Z,9.40
2017-11-09T05:59:41.432Z,9.40
2017-11-09T06:02:16.728Z,9.40
2017-11-09T06:04:44.684Z,9.40
2017-11-09T06:07:13.940Z,9.40
2017-11-09T06:23:30.549Z,9.10
2017-11-09T06:25:58.070Z,9.00
2017-11-09T06:28:25.636Z,9.00
2017-11-09T06:30:53.125Z,9.00
2017-11-09T06:33:21.703Z,9.10
2017-11-09T06:35:49.259Z,9.10
2017-11-09T06:38:16.847Z,9.10
2017-11-09T06:40:44.372Z,9.20
2017-11-09T06:43:11.998Z,9.30
2017-11-09T06:45:40.308Z,9.30
2017-11-09T06:48:07.936Z,9.30
2017-11-09T06:50:35.593Z,9.30
2017-11-09T06:53:03.214Z,9.30
2017-11-09T06:55:30.820Z,9.30
2017-11-09T06:58:01.466Z,9.40
2017-11-09T07:00:32.113Z,9.30
2017-11-09T07:03:00.407Z,9.30
2017-11-09T07:05:27.951Z,9.30
2017-11-09T07:07:55.562Z,9.30
2017-11-09T07:10:23.182Z,9.40
2017-11-09T07:12:50.871Z,9.30
2017-11-09T07:15:18.445Z,9.30
2017-11-09T07:17:46.128Z,9.30
2017-11-09T07:20:14.420Z,9.40
2017-11-09T07:22:42.137Z,9.30
2017-11-09T07:25:09.960Z,9.40
2017-11-09T07:27:39.820Z,9.40
2017-11-09T07:30:09.805Z,9.30
2017-11-09T07:32:37.907Z,9.30
2017-11-09T07:35:05.468Z,9.40
2017-11-09T07:37:33.529Z,9.30
2017-11-09T07:40:01.397Z,9.40
2017-11-09T07:42:29.149Z,9.30
2017-11-09T07:44:59.683Z,9.40
2017-11-09T07:47:27.203Z,9.40
2017-11-09T07:49:54.701Z,9.40
2017-11-09T07:52:22.290Z,9.40
2017-11-09T07:54:52.687Z,9.40
2017-11-09T07:57:20.209Z,9.50
2017-11-09T07:59:47.992Z,9.50
2017-11-09T08:02:16.176Z,9.50
2017-11-09T08:04:43.856Z,9.60
2017-11-09T08:07:11.489Z,9.60
2017-11-09T08:09:39.872Z,9.70
2017-11-09T08:12:07.496Z,9.80
2017-11-09T08:14:35.792Z,9.80
2017-11-09T08:17:03.412Z,9.80
2017-11-09T08:19:31.020Z,9.80
2017-11-09T08:21:58.548Z,9.80
2017-11-09T08:24:29.138Z,9.80
2017-11-09T08:26:57.159Z,9.90
2017-11-09T08:29:25.117Z,9.90
2017-11-09T08:31:53.047Z,10.00
2017-11-09T08:34:20.737Z,9.90
2017-11-09T08:36:48.379Z,9.90
2017-11-09T08:39:19.853Z,9.80
2017-11-09T08:41:47.421Z,9.80
2017-11-09T08:44:15.013Z,9.80
2017-11-09T08:46:42.555Z,9.80
2017-11-09T08:49:10.104Z,9.80
2017-11-09T08:51:37.629Z,9.90
2017-11-09T08:54:05.214Z,9.90
2017-11-09T08:56:33.473Z,10.10
2017-11-09T08:59:00.995Z,10.00
2017-11-09T09:01:28.517Z,10.20
2017-11-09T09:03:56.051Z,10.10
2017-11-09T09:06:23.601Z,10.10
2017-11-09T09:08:51.249Z,10.20
2017-11-09T09:11:18.919Z,10.20
2017-11-09T09:13:46.435Z,10.10
2017-11-09T09:16:13.973Z,10.10
2017-11-09T09:18:42.366Z,10.10
2017-11-09T09:24:33.661Z,10.30
2017-11-09T09:27:21.432Z,10.30
2017-11-09T09:29:55.142Z,10.40
2017-11-09T09:32:42.654Z,10.50
2017-11-09T09:35:18.934Z,10.50
2017-11-09T09:37:50.333Z,10.50
2017-11-09T09:40:28.375Z,10.60
2017-11-09T09:42:58.574Z,10.60
2017-11-09T09:45:27.654Z,10.60
2017-11-09T09:47:56.145Z,10.70
2017-11-09T09:50:24.194Z,10.70
2017-11-09T09:52:53.398Z,10.70
2017-11-09T09:55:21.306Z,10.70
2017-11-09T09:57:49.255Z,10.70
2017-11-09T10:00:18.151Z,10.70
2017-11-09T10:02:46.012Z,10.60
2017-11-09T10:05:15.182Z,10.50
2017-11-09T10:07:44.110Z,10.60
2017-11-09T10:10:12.281Z,10.50
2017-11-09T10:12:40.309Z,10.60
2017-11-09T10:15:08.833Z,10.70
2017-11-09T10:17:37.112Z,10.70
2017-11-09T10:20:05.585Z,10.80
2017-11-09T10:22:33.927Z,10.70
2017-11-09T10:25:06.266Z,10.80
2017-11-09T10:27:34.857Z,10.80
2017-11-09T10:30:03.696Z,10.90
2017-11-09T10:32:32.293Z,10.90
2017-11-09T10:35:07.330Z,10.90
2017-11-09T10:37:46.586Z,11.00
2017-11-09T10:40:21.441Z,11.00
2017-11-09T10:42:49.430Z,11.10
2017-11-09T10:45:19.489Z,11.10
2017-11-09T10:47:52.673Z,11.10
2017-11-09T10:50:32.715Z,11.10
2017-11-09T10:55:41.444Z,11.10
2017-11-09T10:58:10.294Z,11.10
2017-11-09T11:00:44.194Z,11.10
2017-11-09T11:03:13.144Z,11.10
2017-11-09T11:05:41.216Z,11.10
2017-11-09T11:08:09.717Z,11.10
2017-11-09T11:10:38.308Z,11.00
2017-11-09T11:13:07.983Z,11.00
2017-11-09T11:15:37.220Z,11.00
2017-11-09T11:18:05.018Z,10.80
2017-11-09T11:20:34.173Z,10.80
2017-11-09T11:23:03.862Z,10.70
2017-11-09T11:25:32.365Z,10.70
2017-11-09T11:28:00.413Z,10.70
2017-11-09T11:30:28.800Z,10.80
2017-11-09T11:32:56.684Z,10.80
2017-11-09T11:35:25.243Z,10.80
2017-11-09T11:37:53.640Z,10.80
2017-11-09T11:40:21.479Z,10.90
2017-11-09T11:42:54.596Z,10.90
2017-11-09T11:45:24.522Z,10.90
2017-11-09T11:48:03.372Z,10.90
2017-11-09T11:50:35.396Z,10.90
2017-11-09T11:53:05.279Z,11.00
2017-11-09T11:55:33.286Z,11.00
2017-11-09T11:58:01.807Z,11.00
2017-11-09T12:00:32.810Z,11.10
2017-11-09T12:03:02.722Z,11.20
2017-11-09T12:05:34.369Z,11.30
2017-11-09T12:08:05.631Z,11.20
2017-11-09T12:10:36.199Z,11.30
2017-11-09T12:13:08.732Z,11.30
2017-11-09T12:15:36.960Z,11.30
2017-11-09T12:18:15.876Z,11.20
2017-11-09T12:20:52.895Z,11.30
2017-11-09T12:23:26.464Z,11.20
2017-11-09T12:28:33.864Z,11.20
2017-11-09T12:31:04.743Z,11.20
2017-11-09T12:33:34.878Z,11.20
2017-11-09T12:36:03.927Z,11.20
2017-11-09T12:38:33.059Z,11.20
2017-11-09T12:41:04.189Z,11.20
2017-11-09T12:43:36.739Z,11.30
2017-11-09T12:46:05.653Z,11.30
2017-11-09T12:48:34.202Z,11.30
2017-11-09T12:51:02.491Z,11.40
2017-11-09T12:53:31.221Z,11.40
2017-11-09T12:55:59.241Z,11.40
2017-11-09T13:01:01.398Z,11.40
2017-11-09T13:03:29.794Z,11.40
2017-11-09T13:05:57.707Z,11.40
2017-11-09T13:08:26.163Z,11.40
2017-11-09T13:10:55.262Z,11.30
2017-11-09T13:13:23.529Z,11.30
2017-11-09T13:15:51.346Z,11.20
2017-11-09T13:18:19.667Z,11.20
2017-11-09T13:20:47.865Z,11.10
2017-11-09T13:23:15.612Z,11.10
2017-11-09T13:25:44.404Z,11.10
2017-11-09T13:28:12.582Z,11.10
2017-11-09T13:30:41.165Z,11.10
2017-11-09T13:33:09.103Z,11.10
2017-11-09T13:35:36.984Z,11.20
2017-11-09T13:38:05.672Z,11.20
2017-11-09T13:40:34.006Z,11.20
2017-11-09T13:43:04.535Z,11.10
2017-11-09T13:45:33.312Z,11.00
2017-11-09T13:48:01.874Z,11.10
2017-11-09T13:50:29.824Z,11.10
2017-11-09T13:52:57.667Z,11.10
2017-11-09T13:55:30.451Z,11.00
2017-11-09T13:58:01.926Z,11.00
2017-11-09T14:00:29.910Z,11.00
2017-11-09T14:02:58.188Z,11.00
2017-11-09T14:05:26.361Z,11.00
2017-11-09T14:07:55.461Z,10.90
2017-11-09T14:10:23.578Z,10.80
2017-11-09T14:12:52.284Z,10.80
2017-11-09T14:15:20.509Z,10.80
2017-11-09T14:17:48.417Z,10.70
2017-11-09T14:20:16.314Z,10.60
2017-11-09T14:22:44.185Z,10.60
2017-11-09T14:25:12.324Z,10.60
2017-11-09T14:27:40.166Z,10.50
2017-11-09T14:30:08.161Z,10.50
2017-11-09T14:32:38.107Z,10.50
2017-11-09T14:35:05.847Z,10.40
2017-11-09T14:37:34.183Z,10.30
2017-11-09T14:40:04.119Z,10.40
2017-11-09T14:42:33.327Z,10.30
2017-11-09T14:45:01.230Z,10.20
2017-11-09T14:47:32.487Z,10.10
2017-11-09T14:50:00.561Z,10.00
2017-11-09T14:52:29.344Z,9.90
2017-11-09T14:54:58.738Z,9.90
2017-11-09T14:57:27.978Z,9.80
2017-11-09T14:59:56.659Z,9.80
2017-11-09T15:02:24.385Z,9.80
2017-11-09T15:04:53.262Z,9.70
2017-11-09T15:07:22.032Z,9.70
2017-11-09T15:09:49.935Z,9.70
2017-11-09T15:12:18.874Z,9.60
2017-11-09T15:14:47.527Z,9.60
2017-11-09T15:17:16.622Z,9.60
2017-11-09T15:19:44.860Z,9.50
2017-11-09T15:22:12.699Z,9.60
2017-11-09T15:24:51.003Z,9.60
2017-11-09T15:27:19.016Z,9.60
2017-11-09T15:29:47.021Z,9.60
2017-11-09T15:32:14.962Z,9.60
2017-11-09T15:34:43.040Z,9.50
2017-11-09T15:37:11.498Z,9.50
2017-11-09T15:39:40.056Z,9.40
2017-11-09T15:42:08.755Z,9.30
2017-11-09T15:44:36.651Z,9.30
2017-11-09T15:47:04.604Z,9.30
2017-11-09T15:49:33.676Z,9.30
2017-11-09T15:52:02.069Z,9.20
2017-11-09T15:54:32.685Z,9.20
2017-11-09T15:57:00.777Z,9.20
2017-11-09T16:02:01.469Z,9.20
2017-11-09T16:04:29.378Z,9.10
2017-11-09T16:07:01.588Z,9.20
2017-11-09T16:09:29.648Z,9.20
2017-11-09T16:11:57.697Z,9.30
2017-11-09T16:14:26.257Z,9.30
2017-11-09T16:16:57.902Z,9.40
2017-11-09T16:19:26.937Z,9.50
2017-11-09T16:21:54.887Z,9.40
2017-11-09T16:24:23.374Z,9.40
2017-11-09T16:26:57.645Z,9.40
2017-11-09T16:29:26.622Z,9.50
2017-11-09T16:31:57.768Z,9.50
2017-11-09T16:34:26.880Z,9.50
2017-11-09T16:36:57.879Z,9.50
2017-11-09T16:39:28.998Z,9.50
2017-11-09T16:41:57.182Z,9.50
2017-11-09T16:44:38.598Z,9.60
2017-11-09T16:47:10.588Z,9.60
2017-11-09T16:52:29.512Z,9.60
2017-11-09T16:54:59.852Z,9.60
2017-11-09T16:57:29.379Z,9.60
2017-11-09T17:00:01.584Z,9.50
2017-11-09T17:02:30.161Z,9.40
2017-11-09T17:07:35.794Z,9.40
2017-11-09T17:10:05.408Z,9.50
2017-11-09T17:12:45.435Z,9.60
2017-11-09T17:15:17.798Z,9.60
2017-11-09T17:17:46.107Z,9.60
2017-11-09T17:20:14.099Z,9.60
2017-11-09T17:22:42.409Z,9.60
2017-11-09T17:25:13.160Z,9.60
2017-11-09T17:27:42.621Z,9.50
2017-11-09T17:30:12.601Z,9.60
2017-11-09T17:32:42.720Z,9.60
2017-11-09T17:35:14.400Z,9.50
2017-11-09T17:37:42.722Z,9.50
2017-11-09T17:40:12.262Z,9.40
2017-11-09T17:42:42.286Z,9.30
2017-11-09T17:45:12.132Z,9.30
2017-11-09T17:47:41.052Z,9.30
2017-11-09T17:50:10.648Z,9.20
2017-11-09T17:52:38.981Z,9.30
2017-11-09T17:55:06.841Z,9.30
2017-11-09T17:57:34.652Z,9.30
2017-11-09T18:00:07.863Z,9.20
2017-11-09T18:02:35.448Z,9.30
2017-11-09T18:05:03.310Z,9.30
2017-11-09T18:07:31.170Z,9.30
2017-11-09T18:09:59.261Z,9.30
2017-11-09T18:12:26.866Z,9.30
2017-11-09T18:14:55.240Z,9.20
2017-11-09T18:17:24.022Z,9.20
2017-11-09T18:19:51.603Z,9.20
2017-11-09T18:22:19.512Z,9.20
2017-11-09T18:24:49.953Z,9.10
2017-11-09T18:27:17.584Z,9.10
2017-11-09T18:29:45.337Z,9.00
2017-11-09T18:32:12.984Z,9.00
2017-11-09T18:34:40.763Z,9.00
2017-11-09T18:37:08.712Z,9.00
2017-11-09T18:39:36.365Z,9.00
2017-11-09T18:42:04.174Z,8.90
2017-11-09T18:44:31.729Z,8.80
2017-11-09T18:47:00.682Z,8.80
2017-11-09T18:49:28.386Z,8.80
2017-11-09T18:51:55.991Z,8.80
2017-11-09T18:54:24.361Z,8.90
2017-11-09T18:56:51.942Z,8.80
2017-11-09T18:59:19.590Z,8.90
2017-11-09T19:01:47.563Z,8.90
2017-11-09T19:04:16.858Z,8.90
2017-11-09T19:06:48.003Z,8.90
2017-11-09T19:09:22.088Z,8.90
2017-11-09T19:11:49.984Z,8.90
2017-11-09T19:14:17.788Z,9.00
2017-11-09T19:16:45.652Z,9.00
2017-11-09T19:19:14.543Z,9.00
2017-11-09T19:21:44.149Z,9.00
2017-11-09T19:24:11.705Z,9.00
2017-11-09T19:26:39.825Z,9.00
2017-11-09T19:29:08.433Z,9.00
2017-11-09T19:31:37.193Z,9.10
2017-11-09T19:34:05.122Z,9.10
2017-11-09T19:36:32.872Z,9.00
2017-11-09T19:39:02.027Z,9.10
2017-11-09T19:41:30.448Z,9.10
2017-11-09T19:44:00.130Z,9.10
2017-11-09T19:46:28.134Z,9.00
2017-11-09T19:48:55.705Z,9.00
2017-11-09T19:51:24.532Z,9.00
2017-11-09T19:53:52.051Z,8.90
2017-11-09T19:56:19.663Z,8.90
2017-11-09T19:58:48.649Z,8.90
2017-11-09T20:01:16.167Z,8.90
2017-11-09T20:03:43.913Z,8.80
2017-11-09T20:06:12.393Z,8.90
2017-11-09T20:08:40.127Z,8.90
2017-11-09T20:11:11.013Z,8.80
2017-11-09T20:13:38.820Z,8.80
2017-11-09T20:16:07.029Z,8.90
2017-11-09T20:18:37.129Z,8.90
2017-11-09T20:21:08.564Z,8.80
2017-11-09T20:23:36.285Z,8.80
2017-11-09T20:26:04.095Z,8.80
2017-11-09T20:28:31.767Z,8.90
2017-11-09T20:30:59.567Z,8.90
2017-11-09T20:33:27.625Z,8.80
2017-11-09T20:35:55.409Z,8.80
2017-11-09T20:38:22.996Z,8.80
2017-11-09T20:40:50.585Z,8.80
2017-11-09T20:43:18.094Z,8.80
2017-11-09T20:45:45.714Z,8.70
2017-11-09T20:48:13.307Z,8.70
2017-11-09T20:50:40.875Z,8.80
2017-11-09T20:53:08.559Z,8.80
2017-11-09T20:55:36.180Z,8.80
2017-11-09T20:58:03.723Z,8.80
2017-11-09T21:00:31.369Z,8.80
2017-11-09T21:02:59.094Z,8.90
2017-11-09T21:05:26.627Z,8.90
2017-11-09T21:07:54.172Z,8.90
2017-11-09T21:10:22.624Z,8.90
2017-11-09T21:12:50.184Z,9.00
2017-11-09T21:15:21.842Z,8.90
2017-11-09T21:17:53.232Z,9.00
2017-11-09T21:23:00.387Z,9.00
2017-11-09T21:25:27.992Z,8.90
2017-11-09T21:27:55.833Z,9.00
2017-11-09T21:30:23.528Z,8.90
2017-11-09T21:32:53.648Z,9.00
2017-11-09T21:35:23.727Z,9.00
2017-11-09T21:37:51.661Z,9.00
2017-11-09T21:40:20.412Z,9.10
2017-11-09T21:42:48.431Z,9.10
2017-11-09T21:45:16.025Z,9.20
2017-11-09T21:47:43.831Z,9.20
2017-11-09T21:50:11.505Z,9.20
2017-11-09T21:52:39.103Z,9.30
2017-11-09T21:55:07.987Z,9.30
2017-11-09T21:57:35.691Z,9.30
2017-11-09T22:00:05.060Z,9.30
2017-11-09T22:02:33.154Z,9.30
2017-11-09T22:05:02.232Z,9.30
2017-11-09T22:07:30.396Z,9.40
2017-11-09T22:09:57.961Z,9.30
2017-11-09T22:12:25.928Z,9.20
2017-11-09T22:14:53.895Z,9.30
2017-11-09T22:17:22.412Z,9.30
2017-11-09T22:19:50.962Z,9.30
2017-11-09T22:22:18.682Z,9.40
2017-11-09T22:24:46.347Z,9.50
2017-11-09T22:27:14.197Z,9.50
2017-11-09T22:29:41.836Z,9.50
2017-11-09T22:32:09.504Z,9.50
2017-11-09T22:34:37.211Z,9.50
2017-11-09T22:37:08.332Z,9.50
2017-11-09T22:42:34.909Z,9.50
2017-11-09T22:45:02.531Z,9.60
2017-11-09T22:47:31.807Z,9.70
2017-11-09T22:50:00.156Z,9.70
2017-11-09T22:52:27.711Z,9.70
2017-11-09T22:54:55.217Z,9.70
2017-11-09T22:57:22.766Z,9.70
2017-11-09T22:59:50.308Z,9.80
2017-11-09T23:02:17.856Z,9.90
2017-11-09T23:04:45.723Z,9.80
2017-11-09T23:07:13.355Z,9.90
2017-11-09T23:09:41.254Z,9.80
2017-11-09T23:12:15.436Z,9.70
2017-11-09T23:14:43.982Z,9.70
2017-11-09T23:17:11.511Z,9.80
2017-11-09T23:19:39.109Z,9.70
2017-11-09T23:22:06.661Z,9.80
2017-11-09T23:24:34.278Z,9.80
2017-11-09T23:27:01.808Z,9.80
2017-11-09T23:29:29.316Z,9.90
2017-11-09T23:31:56.882Z,9.90
2017-11-09T23:34:24.414Z,9.90
2017-11-09T23:36:51.924Z,9.90
2017-11-09T23:39:19.474Z,10.00
2017-11-09T23:41:47.111Z,10.00
2017-11-09T23:44:15.392Z,10.10
2017-11-09T23:46:42.910Z,10.10
2017-11-09T23:49:10.415Z,10.20
2017-11-09T23:51:38.723Z,10.20
2017-11-09T23:54:06.284Z,10.20
2017-11-09T23:56:33.783Z,10.20
2017-11-09T23:59:01.353Z,10.20
